Time;durP1;ratioP1;P1;durP2;ratioP2;P2;SDS_P1;SDS_P2;PMS_P1;PMS_P2;Temp;Humidity;BMP_temperature;BMP_pressure;BME280_temperature;BME280_humidity;BME280_pressure;Samples;Min_cycle;Max_cycle;Signal;HPM_P1;HPM_P2
2022/06/10 00:01:49;;;;;;;0.00;0.00;;;12.20;88.00;;;;;;20983447;28;20052;-52
2022/06/10 00:11:51;;;;;;;0.68;0.20;;;12.20;89.30;;;;;;20982989;28;20036;-58
2022/06/10 00:21:53;;;;;;;0.10;0.00;;;12.10;88.40;;;;;;20982993;28;20036;-58
2022/06/10 00:31:56;;;;;;;0.93;0.20;;;12.20;88.20;;;;;;21007706;28;20074;-58
2022/06/10 00:41:59;;;;;;;0.20;0.10;;;12.10;88.70;;;;;;21065661;28;20036;-58
2022/06/10 00:52:03;;;;;;;0.47;0.10;;;12.00;88.60;;;;;;21065187;28;20443;-58
2022/06/10 01:02:11;;;;;;;0.30;0.10;;;12.00;89.60;;;;;;21064950;28;20074;-58
2022/06/10 01:12:22;;;;;;;0.10;0.10;;;12.00;88.10;;;;;;21064405;28;20568;-58
2022/06/10 01:22:53;;;;;;;0.65;0.10;;;12.00;89.80;;;;;;21064058;28;20040;-58
2022/06/10 01:33:09;;;;;;;1.88;0.20;;;12.00;88.90;;;;;;21027494;28;20422;-59
2022/06/10 01:43:24;;;;;;;0.70;0.10;;;12.00;89.10;;;;;;20994149;28;20064;-58
2022/06/10 01:53:39;;;;;;;1.85;0.10;;;12.00;88.80;;;;;;20993644;28;20036;-49
2022/06/10 02:04:07;;;;;;;0.38;0.10;;;11.90;88.90;;;;;;20992954;28;20124;-49
2022/06/10 02:14:22;;;;;;;0.10;0.10;;;11.80;89.60;;;;;;20638593;28;20051;-58
2022/06/10 02:24:39;;;;;;;0.70;0.10;;;11.80;89.50;;;;;;20637584;28;20468;-57
2022/06/10 02:34:42;;;;;;;0.30;0.20;;;11.80;90.00;;;;;;20683944;28;20033;-57
2022/06/10 02:45:12;;;;;;;0.68;0.10;;;11.80;90.20;;;;;;20795690;28;20391;-57
2022/06/10 02:55:26;;;;;;;0.40;0.10;;;11.70;90.30;;;;;;21055593;28;20039;-58
2022/06/10 03:05:38;;;;;;;0.30;0.10;;;11.80;90.20;;;;;;21071086;28;20086;-58
2022/06/10 03:15:56;;;;;;;0.95;0.20;;;11.80;90.70;;;;;;21070275;28;20062;-52
2022/06/10 03:26:02;;;;;;;0.30;0.00;;;11.60;91.10;;;;;;21069479;28;20571;-58
2022/06/10 03:36:27;;;;;;;1.20;0.15;;;11.60;90.90;;;;;;21010023;28;20032;-51
2022/06/10 03:46:32;;;;;;;0.45;0.10;;;11.70;90.80;;;;;;20984569;28;20094;-57
2022/06/10 03:56:36;;;;;;;0.20;0.10;;;11.70;90.80;;;;;;20985566;28;20036;-58
2022/06/10 04:06:39;;;;;;;0.52;0.10;;;11.60;91.20;;;;;;20983876;28;20036;-58
2022/06/10 04:16:41;;;;;;;0.25;0.00;;;11.50;91.50;;;;;;20983237;28;20032;-50
2022/06/10 04:26:44;;;;;;;0.38;0.17;;;11.80;91.20;;;;;;20982146;28;20573;-58
2022/06/10 04:36:48;;;;;;;1.42;0.30;;;11.90;91.10;;;;;;21048306;28;20035;-58
2022/06/10 04:46:50;;;;;;;1.23;0.10;;;12.20;90.40;;;;;;21065328;28;20093;-58
2022/06/10 04:56:53;;;;;;;0.32;0.10;;;12.40;90.00;;;;;;21066156;28;20032;-58
2022/06/10 05:06:56;;;;;;;0.68;0.10;;;12.60;90.00;;;;;;21078769;28;20559;-52
2022/06/10 05:16:59;;;;;;;0.03;0.00;;;12.90;89.70;;;;;;21080592;28;20105;-58
2022/06/10 05:27:01;;;;;;;0.30;0.00;;;12.80;90.00;;;;;;21079630;28;20119;-58
2022/06/10 05:37:04;;;;;;;0.25;0.10;;;12.50;90.60;;;;;;21010161;28;20041;-58
2022/06/10 05:47:10;;;;;;;1.08;0.10;;;12.60;90.80;;;;;;20994885;28;20032;-58
2022/06/10 05:57:14;;;;;;;0.10;0.10;;;12.90;90.40;;;;;;20994691;28;20041;-58
2022/06/10 06:07:22;;;;;;;1.67;0.08;;;13.30;90.00;;;;;;20992491;28;20063;-59
2022/06/10 06:17:24;;;;;;;0.10;0.00;;;14.40;88.80;;;;;;20991557;28;20066;-59
2022/06/10 06:27:27;;;;;;;0.75;0.08;;;17.90;81.20;;;;;;20990602;28;20410;-52
2022/06/10 06:37:29;;;;;;;1.25;0.20;;;19.50;77.20;;;;;;21061887;28;20133;-59
2022/06/10 06:47:32;;;;;;;0.30;0.05;;;18.90;76.50;;;;;;21073024;28;20474;-51
2022/06/10 06:57:36;;;;;;;1.75;0.10;;;18.80;77.50;;;;;;21071957;28;20093;-53
2022/06/10 07:07:41;;;;;;;0.38;0.00;;;19.70;76.70;;;;;;21071124;28;20093;-53
2022/06/10 07:17:44;;;;;;;0.25;0.10;;;18.70;75.70;;;;;;21071050;28;20093;-50
2022/06/10 07:27:47;;;;;;;0.00;0.00;;;17.00;81.20;;;;;;21068888;28;20507;-51
2022/06/10 07:37:51;;;;;;;0.65;0.05;;;16.30;83.30;;;;;;20994189;28;20032;-51
2022/06/10 07:47:53;;;;;;;0.20;0.03;;;16.20;86.10;;;;;;20984388;28;20063;-60
2022/06/10 07:57:57;;;;;;;0.10;0.00;;;16.60;86.60;;;;;;20984048;28;20117;-53
2022/06/10 08:08:01;;;;;;;1.27;0.10;;;17.80;81.50;;;;;;20983336;28;20082;-49
2022/06/10 08:18:06;;;;;;;0.22;0.08;;;17.40;81.00;;;;;;20982914;28;20036;-55
2022/06/10 08:28:09;;;;;;;0.35;0.10;;;18.10;82.80;;;;;;20982271;28;20056;-53
2022/06/10 08:38:16;;;;;;;0.10;0.10;;;19.10;80.80;;;;;;20894745;28;20500;-54
2022/06/10 08:48:34;;;;;;;0.20;0.00;;;19.50;78.90;;;;;;20890331;28;20078;-53
2022/06/10 08:58:49;;;;;;;1.60;0.10;;;19.10;78.70;;;;;;20889784;28;20111;-60
2022/06/10 09:08:56;;;;;;;0.35;0.10;;;19.00;78.30;;;;;;20822767;28;20519;-54
2022/06/10 09:19:22;;;;;;;1.15;0.28;;;19.30;77.90;;;;;;20905177;28;20457;-53
2022/06/10 09:29:24;;;;;;;0.10;0.10;;;19.40;78.50;;;;;;21001065;28;20116;-56
2022/06/10 09:50:41;;;;;;;0.10;0.05;;;19.70;78.50;;;;;;21077239;28;20417;-52
2022/06/10 10:01:02;;;;;;;0.30;0.10;;;19.50;77.50;;;;;;21076967;28;20089;-55
2022/06/10 10:11:41;;;;;;;0.35;0.10;;;20.10;75.40;;;;;;21076083;28;20394;-61
2022/06/10 10:21:43;;;;;;;0.20;0.10;;;19.70;81.10;;;;;;20883551;28;20049;-60
2022/06/10 10:32:07;;;;;;;0.00;0.00;;;19.60;78.70;;;;;;20882445;28;20095;-55
2022/06/10 10:42:29;;;;;;;0.10;0.10;;;19.90;82.70;;;;;;20882191;28;20049;-55
2022/06/10 10:52:35;;;;;;;0.30;0.10;;;20.50;77.40;;;;;;20884749;28;20041;-60
2022/06/10 11:02:48;;;;;;;0.20;0.20;;;20.90;79.30;;;;;;20905854;28;20037;-59
2022/06/10 11:12:51;;;;;;;0.10;0.10;;;21.00;78.80;;;;;;20904091;28;20496;-55
2022/06/10 11:23:32;;;;;;;0.52;0.10;;;21.70;77.20;;;;;;20903698;28;20091;-57
2022/06/10 11:33:46;;;;;;;0.00;0.00;;;21.30;74.70;;;;;;20838971;28;20037;-60
2022/06/10 11:43:56;;;;;;;0.52;0.17;;;21.40;74.00;;;;;;20794152;28;20092;-61
2022/06/10 11:54:20;;;;;;;1.75;0.10;;;22.10;77.70;;;;;;20810353;28;20415;-55
2022/06/10 12:04:31;;;;;;;0.98;0.10;;;23.20;81.60;;;;;;20808981;28;20057;-53
2022/06/10 12:14:54;;;;;;;0.20;0.00;;;23.50;72.40;;;;;;20817706;28;20068;-55
2022/06/10 12:24:57;;;;;;;0.10;0.10;;;24.10;71.20;;;;;;20817618;28;20088;-56
2022/06/10 12:35:02;;;;;;;0.35;0.10;;;24.30;69.80;;;;;;20919825;28;20049;-62
2022/06/10 12:45:14;;;;;;;;;;;24.60;73.60;;;;;;20900587;28;20579;-55
2022/06/10 12:55:49;;;;;;;2.33;0.28;;;25.30;68.80;;;;;;20882422;28;19916;-56
2022/06/10 13:05:52;;;;;;;0.43;0.10;;;26.00;79.40;;;;;;20899227;28;20033;-56
2022/06/10 13:16:17;;;;;;;0.38;0.10;;;26.00;74.30;;;;;;20897789;28;20037;-58
2022/06/10 13:26:19;;;;;;;0.60;0.10;;;26.60;79.40;;;;;;20936243;23;20048;-65
2022/06/10 13:36:25;;;;;;;1.65;0.10;;;27.00;77.90;;;;;;21061317;28;20094;-63
2022/06/10 13:46:31;;;;;;;1.20;0.20;;;26.90;74.50;;;;;;21061614;28;20032;-63
2022/06/10 13:56:42;;;;;;;0.50;0.20;;;26.20;73.20;;;;;;21060422;28;20356;-63
2022/06/10 14:06:48;;;;;;;5.05;0.43;;;26.80;80.00;;;;;;21059529;28;20069;-63
2022/06/10 14:17:09;;;;;;;0.50;0.50;;;27.40;78.20;;;;;;21058780;28;20032;-64
2022/06/10 14:27:22;;;;;;;2.13;0.40;;;27.80;73.30;;;;;;21057977;28;20106;-64
2022/06/10 14:37:38;;;;;;;3.38;1.00;;;28.00;75.30;;;;;;20990177;28;20040;-63
2022/06/10 14:48:15;;;;;;;0.98;0.65;;;28.30;72.90;;;;;;20990657;28;20046;-64
2022/06/10 14:58:21;;;;;;;0.55;0.55;;;28.50;71.60;;;;;;20989915;28;20033;-62
2022/06/10 15:08:25;;;;;;;1.40;0.50;;;25.10;74.80;;;;;;20987715;28;20036;-61
2022/06/10 15:18:30;;;;;;;1.65;0.80;;;23.10;81.60;;;;;;20986945;28;20040;-60
2022/06/10 15:28:34;;;;;;;4.18;0.77;;;22.50;75.90;;;;;;20986186;28;20487;-61
2022/06/10 15:49:03;;;;;;;1.70;0.70;;;24.30;78.70;;;;;;21050672;28;20543;-62
2022/06/10 15:59:06;;;;;;;0.88;0.60;;;26.40;73.70;;;;;;21050854;28;20032;-61
2022/06/10 16:09:09;;;;;;;0.88;0.52;;;25.90;74.10;;;;;;21050054;28;20032;-60
2022/06/10 16:19:12;;;;;;;0.68;0.30;;;23.60;76.20;;;;;;21049987;28;20031;-59
2022/06/10 16:29:25;;;;;;;1.20;0.43;;;22.10;80.20;;;;;;20979212;28;20102;-58
2022/06/10 16:39:27;;;;;;;0.93;0.40;;;21.40;82.00;;;;;;20899026;28;20094;-59
2022/06/10 16:49:35;;;;;;;7.78;0.47;;;20.20;83.00;;;;;;20899046;28;20560;-51
2022/06/10 16:59:39;;;;;;;2.50;0.30;;;18.40;90.50;;;;;;20892781;28;20040;-52
2022/06/10 17:09:42;;;;;;;2.42;0.65;;;17.00;93.00;;;;;;20914333;28;20036;-49
2022/06/10 17:19:45;;;;;;;2.58;0.32;;;16.00;94.50;;;;;;20913295;28;20114;-58
2022/06/10 17:29:47;;;;;;;0.55;0.30;;;15.50;95.00;;;;;;20995475;28;20060;-58
2022/06/10 17:39:51;;;;;;;2.70;0.45;;;15.10;96.10;;;;;;21061603;28;20371;-58
2022/06/10 17:49:54;;;;;;;0.90;0.47;;;14.80;98.10;;;;;;21060622;28;20394;-57
2022/06/10 17:59:59;;;;;;;1.58;0.30;;;14.30;99.20;;;;;;21060228;28;20089;-58
2022/06/10 18:10:02;;;;;;;0.82;0.60;;;14.10;99.60;;;;;;21058782;28;20028;-58
2022/06/10 18:20:13;;;;;;;1.00;0.57;;;13.90;99.90;;;;;;21058644;28;20452;-58
2022/06/10 18:30:25;;;;;;;1.98;0.85;;;13.60;99.90;;;;;;21046163;28;20074;-57
2022/06/10 18:40:31;;;;;;;1.25;0.70;;;13.40;99.90;;;;;;20989766;28;20037;-56
2022/06/10 18:50:35;;;;;;;1.55;0.60;;;13.10;99.90;;;;;;20989043;28;20441;-52
2022/06/10 19:00:41;;;;;;;1.85;0.98;;;13.00;99.90;;;;;;20988774;28;20033;-57
2022/06/10 19:10:46;;;;;;;3.25;1.88;;;12.80;99.90;;;;;;20987371;28;20041;-56
2022/06/10 19:20:51;;;;;;;5.25;2.67;;;12.60;99.90;;;;;;20984266;28;20491;-56
2022/06/10 19:30:57;;;;;;;5.35;2.90;;;12.40;99.90;;;;;;21001324;28;20035;-57
2022/06/10 19:41:00;;;;;;;3.78;2.05;;;12.30;99.90;;;;;;21050482;28;20028;-58
2022/06/10 19:51:14;;;;;;;2.05;1.00;;;12.20;99.90;;;;;;21050245;28;20406;-51
2022/06/10 20:01:25;;;;;;;2.53;1.20;;;11.90;99.90;;;;;;21050149;28;20109;-57
2022/06/10 20:11:27;;;;;;;;;;;11.70;99.90;;;;;;21050460;28;20043;-56
2022/06/10 20:21:31;;;;;;;3.58;1.50;;;11.80;99.90;;;;;;21049341;28;19917;-57
2022/06/10 20:31:41;;;;;;;3.33;1.52;;;11.70;99.90;;;;;;21026715;28;20032;-57
2022/06/10 20:41:45;;;;;;;3.47;2.08;;;11.70;99.90;;;;;;20981590;28;20094;-50
2022/06/10 20:51:53;;;;;;;4.82;2.50;;;11.50;99.90;;;;;;20981098;28;20032;-57
2022/06/10 21:01:58;;;;;;;6.03;2.92;;;11.40;99.90;;;;;;20981471;28;20040;-58
2022/06/10 21:12:01;;;;;;;4.95;2.63;;;11.40;99.90;;;;;;20979088;28;20486;-57
2022/06/10 21:22:03;;;;;;;5.80;3.10;;;11.50;99.90;;;;;;20979123;28;20056;-57
2022/06/10 21:32:10;;;;;;;7.72;3.85;;;11.60;99.90;;;;;;21005297;28;20032;-51
2022/06/10 21:52:52;;;;;;;7.47;4.43;;;12.00;99.90;;;;;;21060920;28;20031;-57
2022/06/10 22:02:56;;;;;;;4.82;3.00;;;12.10;99.90;;;;;;21061312;28;20036;-57
2022/06/10 22:13:00;;;;;;;4.13;2.35;;;12.10;99.90;;;;;;21059266;28;20039;-48
2022/06/10 22:23:11;;;;;;;5.18;2.97;;;12.20;99.90;;;;;;21058058;28;20052;-52
2022/06/10 22:33:25;;;;;;;6.45;3.33;;;12.20;99.90;;;;;;21020988;28;20040;-57
2022/06/10 22:43:30;;;;;;;6.53;3.60;;;12.10;99.90;;;;;;20990224;28;20041;-51
2022/06/10 22:53:32;;;;;;;5.50;2.92;;;12.00;99.90;;;;;;20988962;28;20384;-57
2022/06/10 23:03:39;;;;;;;6.40;3.00;;;12.20;99.90;;;;;;20988290;28;20032;-51
2022/06/10 23:13:42;;;;;;;4.10;2.10;;;12.30;99.90;;;;;;20987180;28;20644;-57
2022/06/10 23:23:47;;;;;;;2.58;1.27;;;12.10;99.90;;;;;;20986392;28;20057;-49
2022/06/10 23:33:51;;;;;;;2.97;1.45;;;11.70;99.90;;;;;;21027193;28;20453;-53
2022/06/10 23:43:55;;;;;;;2.55;1.05;;;11.70;99.90;;;;;;21052241;28;20036;-57
2022/06/10 23:53:58;;;;;;;4.13;1.40;;;11.70;99.90;;;;;;21052497;28;20027;-50
